Time;durP1;ratioP1;P1;durP2;ratioP2;P2;SDS_P1;SDS_P2;PMS_P1;PMS_P2;Temp;Humidity;BMP_temperature;BMP_pressure;BME280_temperature;BME280_humidity;BME280_pressure;Samples;Min_cycle;Max_cycle;Signal;HPM_P1;HPM_P2
2024/01/01 00:01:41;;;;;;;3.85;2.17;;;;;;;5.45;100.00;97322.72;6097653;19;20066;-72
2024/01/01 00:03:43;;;;;;;4.72;2.08;;;;;;;5.48;100.00;97322.78;6097358;19;20006;-72
2024/01/01 00:05:43;;;;;;;4.70;2.33;;;;;;;5.48;100.00;97316.50;6097523;19;20013;-72
2024/01/01 00:07:45;;;;;;;5.85;2.47;;;;;;;5.45;100.00;97309.78;6096835;19;20054;-72
2024/01/01 00:09:45;;;;;;;5.18;2.38;;;;;;;5.49;100.00;97312.59;6096976;19;20263;-72
2024/01/01 00:11:45;;;;;;;5.95;2.40;;;;;;;5.53;100.00;97299.69;6096937;19;20044;-72
2024/01/01 00:13:45;;;;;;;8.63;2.75;;;;;;;5.55;100.00;97298.19;6097253;19;20031;-72
2024/01/01 00:15:46;;;;;;;5.60;2.60;;;;;;;5.58;100.00;97302.91;6097505;19;20058;-72
2024/01/01 00:17:46;;;;;;;4.97;2.28;;;;;;;5.57;100.00;97295.84;6096511;19;20338;-72
2024/01/01 00:19:46;;;;;;;5.85;2.00;;;;;;;5.64;100.00;97308.88;6095042;19;20002;-72
2024/01/01 00:21:47;;;;;;;2.63;1.90;;;;;;;5.66;100.00;97311.25;6089885;19;20011;-71
2024/01/01 00:23:47;;;;;;;4.10;2.15;;;;;;;5.73;100.00;97308.59;6096317;19;20010;-71
2024/01/01 00:25:47;;;;;;;5.68;2.22;;;;;;;5.68;100.00;97309.69;6096185;19;20003;-72
2024/01/01 00:27:48;;;;;;;5.57;2.30;;;;;;;5.63;100.00;97294.38;6096322;19;20482;-72
2024/01/01 00:29:48;;;;;;;4.38;2.30;;;;;;;5.69;100.00;97299.50;6097457;19;20010;-72
2024/01/01 00:31:48;;;;;;;5.18;2.25;;;;;;;5.64;100.00;97298.69;6095875;19;21296;-72
2024/01/01 00:33:48;;;;;;;6.15;2.85;;;;;;;5.59;100.00;97301.75;6096301;19;20007;-72
2024/01/01 00:35:49;;;;;;;4.60;2.25;;;;;;;5.59;100.00;97296.25;6096102;19;20025;-72
2024/01/01 00:37:49;;;;;;;4.55;2.20;;;;;;;5.56;100.00;97301.72;6096833;19;20223;-72
2024/01/01 00:39:49;;;;;;;5.00;2.55;;;;;;;5.54;100.00;97293.84;6096961;19;20003;-72
2024/01/01 00:41:50;;;;;;;5.68;2.80;;;;;;;5.55;100.00;97287.22;6095483;19;20014;-72
2024/01/01 00:43:50;;;;;;;5.80;2.58;;;;;;;5.54;100.00;97301.28;6096229;19;20003;-72
2024/01/01 00:45:50;;;;;;;6.63;2.42;;;;;;;5.58;100.00;97299.38;6096541;19;20573;-72
2024/01/01 00:47:51;;;;;;;4.70;2.63;;;;;;;5.53;100.00;97299.69;6096087;19;20022;-72
2024/01/01 00:49:51;;;;;;;5.72;2.67;;;;;;;5.53;100.00;97300.50;6106612;19;20073;-72
2024/01/01 00:51:51;;;;;;;6.80;2.50;;;;;;;5.48;100.00;97302.78;6109164;19;20007;-72
2024/01/01 00:53:52;;;;;;;4.75;2.50;;;;;;;5.41;100.00;97308.97;6110509;19;20018;-72
2024/01/01 00:55:52;;;;;;;6.00;2.67;;;;;;;5.44;100.00;97312.91;6108905;19;20019;-72
2024/01/01 00:57:53;;;;;;;4.55;2.63;;;;;;;5.40;100.00;97312.88;6109954;19;20014;-72
2024/01/01 00:59:53;;;;;;;4.88;2.60;;;;;;;5.38;100.00;97315.22;6110205;19;20109;-72
2024/01/01 01:01:53;;;;;;;5.57;2.45;;;;;;;5.36;100.00;97314.78;6107657;19;20010;-72
2024/01/01 01:03:53;;;;;;;3.28;1.95;;;;;;;5.33;100.00;97318.28;6111106;19;20010;-72
2024/01/01 01:05:54;;;;;;;4.72;2.42;;;;;;;5.32;100.00;97322.19;6110114;19;20014;-72
2024/01/01 01:07:54;;;;;;;4.45;2.30;;;;;;;5.27;100.00;97315.06;6110462;19;20010;-72
2024/01/01 01:09:55;;;;;;;4.07;2.28;;;;;;;5.33;100.00;97312.78;6109657;19;20195;-72
2024/01/01 01:11:55;;;;;;;5.65;2.20;;;;;;;5.25;100.00;97311.91;6104336;19;20014;-72
2024/01/01 01:13:56;;;;;;;5.88;2.63;;;;;;;5.33;100.00;97327.28;6104155;19;20495;-72
2024/01/01 01:15:56;;;;;;;4.47;2.40;;;;;;;5.30;100.00;97317.06;6103019;19;20020;-72
2024/01/01 01:17:56;;;;;;;3.75;2.00;;;;;;;5.38;100.00;97328.94;6103105;19;20325;-72
2024/01/01 01:19:57;;;;;;;4.13;2.42;;;;;;;5.33;100.00;97330.03;6101278;19;20419;-72
2024/01/01 01:21:57;;;;;;;3.80;2.08;;;;;;;5.30;100.00;97330.78;6100242;19;20010;-72
2024/01/01 01:23:58;;;;;;;4.70;2.20;;;;;;;5.29;100.00;97334.66;6101347;19;20038;-72
2024/01/01 01:25:58;;;;;;;2.65;1.90;;;;;;;5.32;100.00;97333.16;6103709;19;20527;-72
2024/01/01 01:27:58;;;;;;;4.25;1.90;;;;;;;5.34;100.00;97339.03;6109560;19;20038;-72
2024/01/01 01:29:59;;;;;;;5.25;2.55;;;;;;;5.29;100.00;97328.38;6109929;19;20327;-72
2024/01/01 01:31:59;;;;;;;5.25;2.50;;;;;;;5.28;100.00;97346.00;6108569;19;20034;-72
2024/01/01 01:33:59;;;;;;;7.22;2.90;;;;;;;5.36;100.00;97344.94;6107404;19;20463;-72
2024/01/01 01:36:00;;;;;;;6.70;2.22;;;;;;;5.41;100.00;97343.84;6108564;19;20017;-72
2024/01/01 01:38:01;;;;;;;6.47;2.63;;;;;;;5.44;100.00;97348.56;6110031;19;20421;-72
2024/01/01 01:40:01;;;;;;;4.50;2.30;;;;;;;5.37;100.00;97349.25;6106892;19;20047;-72
2024/01/01 01:42:02;;;;;;;3.17;1.92;;;;;;;5.36;100.00;97333.97;6107563;19;20696;-72
2024/01/01 01:44:02;;;;;;;5.80;2.88;;;;;;;5.35;100.00;97340.63;6108501;19;19994;-73
2024/01/01 01:46:02;;;;;;;6.18;2.20;;;;;;;5.32;100.00;97328.44;6107516;19;20003;-72
2024/01/01 01:48:03;;;;;;;3.72;2.38;;;;;;;5.33;100.00;97324.53;6107768;19;20002;-72
2024/01/01 01:50:06;;;;;;;4.97;2.40;;;;;;;5.36;100.00;97339.47;6109182;19;20322;-72
2024/01/01 01:52:09;;;;;;;4.28;2.40;;;;;;;5.38;100.00;97336.34;6106425;19;20014;-72
2024/01/01 01:54:09;;;;;;;5.07;2.53;;;;;;;5.42;100.00;97337.97;6107076;19;20007;-72
2024/01/01 01:56:11;;;;;;;5.10;2.28;;;;;;;5.47;100.00;97334.13;6107439;19;20285;-72
2024/01/01 01:58:11;;;;;;;5.68;2.65;;;;;;;5.47;100.00;97334.94;6109436;19;20034;-72
2024/01/01 02:00:12;;;;;;;3.70;2.42;;;;;;;5.43;100.00;97350.53;6110090;19;20573;-72
2024/01/01 02:02:13;;;;;;;6.30;3.20;;;;;;;5.44;100.00;97343.09;6108367;19;20002;-72
2024/01/01 02:04:14;;;;;;;8.00;2.90;;;;;;;5.42;100.00;97335.25;6107005;19;20003;-72
2024/01/01 02:06:14;;;;;;;9.27;2.58;;;;;;;5.43;100.00;97336.81;6109664;19;20007;-72
2024/01/01 02:08:15;;;;;;;4.28;2.25;;;;;;;5.45;100.00;97325.47;6107098;19;20344;-72
2024/01/01 02:10:15;;;;;;;3.90;2.53;;;;;;;5.47;100.00;97328.66;6108141;19;20014;-72
2024/01/01 02:12:16;;;;;;;4.88;2.97;;;;;;;5.51;100.00;97343.97;6107779;19;20011;-72
2024/01/01 02:14:16;;;;;;;5.65;2.85;;;;;;;5.53;100.00;97333.41;6109193;19;20385;-72
2024/01/01 02:16:16;;;;;;;6.28;2.53;;;;;;;5.52;100.00;97328.31;6109430;19;20363;-72
2024/01/01 02:18:17;;;;;;;6.53;2.97;;;;;;;5.49;100.00;97335.34;6106943;19;20022;-72
2024/01/01 02:20:17;;;;;;;4.65;2.17;;;;;;;5.57;100.00;97325.25;6109767;19;20036;-72
2024/01/01 02:22:18;;;;;;;4.60;2.20;;;;;;;5.55;100.00;97328.38;6107833;19;20412;-72
2024/01/01 02:24:20;;;;;;;3.17;2.00;;;;;;;5.53;100.00;97325.19;6108146;19;20026;-72
2024/01/01 02:26:21;;;;;;;3.75;2.33;;;;;;;5.56;100.00;97321.72;6109003;19;20010;-72
2024/01/01 02:28:21;;;;;;;4.18;2.25;;;;;;;5.60;100.00;97322.53;6109985;19;20546;-72
2024/01/01 02:30:21;;;;;;;6.93;2.50;;;;;;;5.61;100.00;97329.59;6107724;19;20441;-72
2024/01/01 02:32:22;;;;;;;5.15;2.28;;;;;;;5.57;100.00;97330.72;6107291;19;20100;-72
2024/01/01 02:34:24;;;;;;;4.43;2.22;;;;;;;5.57;100.00;97325.25;6109133;19;20023;-72
2024/01/01 02:36:24;;;;;;;5.13;2.53;;;;;;;5.64;100.00;97328.09;6108074;19;20003;-72
2024/01/01 02:38:25;;;;;;;6.28;2.50;;;;;;;5.59;100.00;97323.69;6108240;19;20113;-72
2024/01/01 02:40:25;;;;;;;5.03;2.30;;;;;;;5.57;100.00;97334.25;6109379;19;20011;-72
2024/01/01 02:42:27;;;;;;;4.10;2.28;;;;;;;5.53;100.00;97335.38;6106713;19;20754;-72
2024/01/01 02:44:27;;;;;;;4.47;2.35;;;;;;;5.51;100.00;97330.25;6108610;19;20450;-72
2024/01/01 02:46:27;;;;;;;4.13;2.10;;;;;;;5.53;100.00;97335.38;6107075;19;20017;-72
2024/01/01 02:48:27;;;;;;;4.55;2.05;;;;;;;5.54;100.00;97328.72;6108838;19;20368;-72
2024/01/01 02:50:29;;;;;;;4.40;2.90;;;;;;;5.50;100.00;97342.41;6108588;19;20010;-72
2024/01/01 02:52:29;;;;;;;7.45;2.97;;;;;;;5.48;100.00;97336.50;6107300;19;20006;-72
2024/01/01 02:54:29;;;;;;;4.63;2.50;;;;;;;5.49;100.00;97337.28;6106875;19;20036;-72
2024/01/01 02:56:30;;;;;;;7.60;2.78;;;;;;;5.49;100.00;97340.81;6107072;19;20403;-72
2024/01/01 02:58:30;;;;;;;4.95;2.88;;;;;;;5.52;100.00;97337.31;6107573;19;20023;-72
2024/01/01 03:00:30;;;;;;;5.75;2.80;;;;;;;5.53;100.00;97332.63;6106876;19;20450;-72
2024/01/01 03:02:31;;;;;;;5.65;3.05;;;;;;;5.47;100.00;97331.41;6104474;19;20027;-72
2024/01/01 03:04:31;;;;;;;3.70;2.40;;;;;;;5.47;100.00;97339.63;6106905;19;21258;-72
2024/01/01 03:06:31;;;;;;;3.83;2.80;;;;;;;5.44;100.00;97340.34;6107737;19;20002;-72
2024/01/01 03:08:32;;;;;;;11.25;3.47;;;;;;;5.35;100.00;97338.66;6108346;19;20414;-72
2024/01/01 03:10:32;;;;;;;5.72;2.65;;;;;;;5.32;100.00;97339.41;6107739;19;20003;-72
2024/01/01 03:12:33;;;;;;;5.45;2.70;;;;;;;5.29;100.00;97347.59;6106800;19;20002;-72
2024/01/01 03:14:33;;;;;;;5.78;3.03;;;;;;;5.28;100.00;97346.00;6108353;19;20350;-72
2024/01/01 03:16:33;;;;;;;3.75;2.25;;;;;;;5.27;100.00;97341.69;6104754;19;19998;-72
2024/01/01 03:18:34;;;;;;;5.13;3.00;;;;;;;5.26;100.00;97345.59;6103799;19;20043;-72
2024/01/01 03:20:34;;;;;;;6.50;2.90;;;;;;;5.23;100.00;97338.13;6106508;19;20035;-72
2024/01/01 03:22:34;;;;;;;7.13;2.28;;;;;;;5.26;100.00;97337.38;6106523;19;20003;-72
2024/01/01 03:24:35;;;;;;;7.53;2.92;;;;;;;5.28;100.00;97338.56;6106778;19;20317;-72
2024/01/01 03:26:35;;;;;;;5.78;2.75;;;;;;;5.29;100.00;97339.34;6107607;19;20006;-72
2024/01/01 03:28:35;;;;;;;4.68;2.67;;;;;;;5.28;100.00;97335.03;6107138;19;20002;-72
2024/01/01 03:30:36;;;;;;;8.35;3.72;;;;;;;5.27;100.00;97338.94;6106225;19;20007;-72
2024/01/01 03:32:36;;;;;;;6.43;2.65;;;;;;;5.24;100.00;97340.47;6105613;19;20494;-72
2024/01/01 03:34:36;;;;;;;6.38;3.05;;;;;;;5.20;100.00;97333.34;6106644;19;20336;-72
2024/01/01 03:36:37;;;;;;;6.47;2.83;;;;;;;5.18;100.00;97341.97;6105612;19;20034;-72
2024/01/01 03:38:37;;;;;;;4.03;2.60;;;;;;;5.23;100.00;97340.84;6107218;19;20018;-72
2024/01/01 03:40:38;;;;;;;7.20;3.03;;;;;;;5.19;100.00;97331.78;6105333;19;20321;-72
2024/01/01 03:42:38;;;;;;;7.82;2.95;;;;;;;5.21;100.00;97337.69;6106778;19;20009;-72
2024/01/01 03:44:38;;;;;;;6.57;3.50;;;;;;;5.21;100.00;97343.16;6105910;19;20007;-72
2024/01/01 03:46:39;;;;;;;7.78;3.40;;;;;;;5.21;100.00;97338.50;6108072;19;20471;-72
2024/01/01 03:48:39;;;;;;;6.07;3.20;;;;;;;5.20;100.00;97336.09;6095927;19;20019;-72
2024/01/01 03:50:39;;;;;;;4.88;2.70;;;;;;;5.18;100.00;97341.97;6107702;19;20335;-72
2024/01/01 03:52:39;;;;;;;4.75;2.65;;;;;;;5.21;100.00;97343.97;6106235;19;20026;-72
2024/01/01 03:54:40;;;;;;;5.68;3.25;;;;;;;5.27;100.00;97344.44;6106235;19;20011;-72
2024/01/01 03:56:41;;;;;;;7.07;3.40;;;;;;;5.24;100.00;97337.75;6103817;19;20003;-72
2024/01/01 03:58:41;;;;;;;6.20;3.67;;;;;;;5.28;100.00;97338.56;6107318;19;20109;-72
2024/01/01 04:00:41;;;;;;;6.63;3.53;;;;;;;5.28;100.00;97335.03;6106887;19;20083;-72
2024/01/01 04:02:42;;;;;;;7.18;3.72;;;;;;;5.24;100.00;97326.78;6106246;19;20007;-72
2024/01/01 04:04:45;;;;;;;6.78;3.25;;;;;;;5.20;100.00;97319.66;6107006;19;20003;-72
2024/01/01 04:06:45;;;;;;;5.75;3.30;;;;;;;5.17;100.00;97309.44;6103011;19;19999;-72
2024/01/01 04:08:46;;;;;;;5.10;3.38;;;;;;;5.11;100.00;97317.19;6105947;19;20009;-72
2024/01/01 04:10:47;;;;;;;8.20;3.58;;;;;;;5.03;100.00;97321.75;6106027;19;20062;-72
2024/01/01 04:12:47;;;;;;;5.57;3.00;;;;;;;4.98;100.00;97324.84;6105887;19;20003;-72
2024/01/01 04:14:48;;;;;;;9.35;3.95;;;;;;;4.89;100.00;97327.06;6105362;19;19999;-72
2024/01/01 04:16:48;;;;;;;5.82;3.53;;;;;;;4.83;100.00;97320.28;6105454;19;20029;-72
2024/01/01 04:18:48;;;;;;;6.18;3.03;;;;;;;4.78;100.00;97323.34;6106266;19;20027;-72
2024/01/01 04:20:49;;;;;;;7.20;3.17;;;;;;;4.78;100.00;97329.59;6106179;19;20346;-72
2024/01/01 04:22:51;;;;;;;8.80;3.78;;;;;;;4.74;100.00;97315.06;6105445;19;20002;-72
2024/01/01 04:24:52;;;;;;;8.57;3.97;;;;;;;4.72;100.00;97306.44;6105331;19;20007;-72
2024/01/01 04:26:52;;;;;;;9.13;3.88;;;;;;;4.72;100.00;97311.91;6103757;19;20518;-72
2024/01/01 04:28:52;;;;;;;5.72;3.10;;;;;;;4.69;100.00;97318.13;6104785;19;20010;-72
2024/01/01 04:30:53;;;;;;;6.57;3.38;;;;;;;4.72;100.00;97324.84;6106082;19;20328;-72
2024/01/01 04:32:53;;;;;;;9.93;3.60;;;;;;;4.78;100.00;97324.13;6110124;19;20002;-72
2024/01/01 04:34:53;;;;;;;4.85;3.10;;;;;;;4.79;100.00;97330.41;6112080;19;20006;-72
2024/01/01 04:36:53;;;;;;;7.10;3.67;;;;;;;4.81;100.00;97336.31;6110293;19;20466;-72
2024/01/01 04:38:55;;;;;;;11.70;3.80;;;;;;;4.84;100.00;97332.03;6110453;19;20029;-72
2024/01/01 04:40:55;;;;;;;6.72;3.15;;;;;;;4.92;100.00;97331.78;6110920;19;20286;-72
2024/01/01 04:42:56;;;;;;;6.95;4.00;;;;;;;4.98;100.00;97329.53;6110507;19;20462;-72
2024/01/01 04:44:56;;;;;;;9.95;3.72;;;;;;;4.96;100.00;97335.34;6111234;19;20476;-72
2024/01/01 04:46:56;;;;;;;7.60;3.22;;;;;;;4.92;100.00;97331.78;6110640;19;20006;-72
2024/01/01 04:48:57;;;;;;;5.93;3.03;;;;;;;4.87;100.00;97329.34;6105748;19;20336;-72
2024/01/01 04:50:58;;;;;;;10.55;3.60;;;;;;;4.78;100.00;97331.56;6096559;19;20033;-72
2024/01/01 04:52:58;;;;;;;4.85;3.20;;;;;;;4.73;100.00;97334.63;6096294;19;20471;-72
2024/01/01 04:54:59;;;;;;;8.52;3.22;;;;;;;4.67;100.00;97323.19;6096905;19;20006;-72
2024/01/01 04:56:59;;;;;;;4.97;2.70;;;;;;;4.71;100.00;97323.22;6095482;19;20053;-72
2024/01/01 04:58:59;;;;;;;6.35;2.70;;;;;;;4.72;100.00;97322.09;6096801;19;20450;-72
2024/01/01 05:01:00;;;;;;;6.75;3.42;;;;;;;4.68;100.00;97318.50;6097319;19;20066;-72
2024/01/01 05:03:01;;;;;;;4.55;2.63;;;;;;;4.70;100.00;97329.88;6095505;19;20007;-72
2024/01/01 05:05:03;;;;;;;5.13;2.88;;;;;;;4.78;100.00;97326.88;6096623;19;20033;-72
2024/01/01 05:07:03;;;;;;;4.55;2.97;;;;;;;4.81;100.00;97328.09;6095671;19;20003;-72
2024/01/01 05:09:04;;;;;;;4.63;2.85;;;;;;;4.76;100.00;97328.41;6097744;19;20002;-72
2024/01/01 05:11:05;;;;;;;5.88;3.85;;;;;;;4.75;100.00;97324.09;6095700;19;20517;-72
2024/01/01 05:13:07;;;;;;;8.05;3.28;;;;;;;4.73;100.00;97324.47;6095200;19;20019;-72
2024/01/01 05:15:07;;;;;;;6.25;3.05;;;;;;;4.73;100.00;97329.16;6095778;19;20653;-72
2024/01/01 05:17:08;;;;;;;8.35;3.35;;;;;;;4.70;100.00;97330.66;6094692;19;20031;-72
2024/01/01 05:19:08;;;;;;;6.47;2.65;;;;;;;4.69;100.00;97333.75;6095840;19;20080;-72
2024/01/01 05:21:08;;;;;;;5.82;2.80;;;;;;;4.70;100.00;97324.38;6095807;19;20459;-72
2024/01/01 05:23:09;;;;;;;5.03;2.63;;;;;;;4.64;100.00;97321.19;6095062;19;20010;-72
2024/01/01 05:25:09;;;;;;;6.40;3.10;;;;;;;4.63;100.00;97322.31;6095432;19;20009;-72
2024/01/01 05:27:10;;;;;;;5.70;2.78;;;;;;;4.66;100.00;97318.06;6094587;19;20006;-72
2024/01/01 05:29:10;;;;;;;4.75;2.30;;;;;;;4.71;100.00;97320.47;6095087;19;20280;-72
2024/01/01 05:31:10;;;;;;;5.60;2.83;;;;;;;4.70;100.00;97314.22;6092570;19;20553;-72
2024/01/01 05:33:11;;;;;;;7.40;3.10;;;;;;;4.71;100.00;97318.53;6092240;19;20002;-72
2024/01/01 05:35:11;;;;;;;6.30;3.20;;;;;;;4.72;100.00;97300.16;6092544;19;20007;-72
2024/01/01 05:37:11;;;;;;;8.32;3.60;;;;;;;4.78;100.00;97317.84;6092212;19;20298;-72
2024/01/01 05:39:12;;;;;;;6.78;3.30;;;;;;;4.72;100.00;97313.88;6096157;19;20006;-72
2024/01/01 05:41:13;;;;;;;9.52;3.63;;;;;;;4.65;100.00;97306.31;6094575;19;19998;-72
2024/01/01 05:43:14;;;;;;;4.90;2.63;;;;;;;4.72;100.00;97316.59;6095855;19;20003;-72
2024/01/01 05:45:14;;;;;;;8.40;3.90;;;;;;;4.76;100.00;97307.28;6094530;19;21384;-72
2024/01/01 05:47:15;;;;;;;8.15;3.05;;;;;;;4.81;100.00;97316.34;6094768;19;20097;-72
2024/01/01 05:49:15;;;;;;;7.47;3.15;;;;;;;4.79;100.00;97305.72;6101692;19;20465;-72
2024/01/01 05:51:16;;;;;;;8.27;3.70;;;;;;;4.78;100.00;97302.19;6108653;19;20348;-72
2024/01/01 05:53:16;;;;;;;6.35;3.28;;;;;;;4.80;100.00;97318.31;6107039;19;20005;-72
2024/01/01 05:55:17;;;;;;;12.57;3.40;;;;;;;4.78;100.00;97321.38;6109709;19;20011;-72
2024/01/01 05:57:17;;;;;;;9.57;3.17;;;;;;;4.83;100.00;97320.28;6109838;19;20470;-72
2024/01/01 05:59:17;;;;;;;5.30;3.03;;;;;;;4.87;100.00;97314.84;6110232;19;20430;-72
2024/01/01 06:01:18;;;;;;;5.57;2.88;;;;;;;4.86;100.00;97316.03;6109076;19;20006;-72
2024/01/01 06:03:18;;;;;;;5.43;2.60;;;;;;;4.88;100.00;97319.19;6107518;19;20011;-72
2024/01/01 06:05:18;;;;;;;6.15;3.13;;;;;;;4.86;100.00;97333.25;6109777;19;20007;-72
2024/01/01 06:07:19;;;;;;;5.00;2.85;;;;;;;4.84;100.00;97341.06;6109438;19;20018;-72
2024/01/01 06:09:19;;;;;;;11.82;3.33;;;;;;;4.84;100.00;97349.28;6109604;19;20470;-72
2024/01/01 06:11:19;;;;;;;6.22;2.53;;;;;;;4.83;100.00;97344.97;6106795;19;20044;-72
2024/01/01 06:13:19;;;;;;;7.20;2.78;;;;;;;4.82;100.00;97342.59;6107832;19;20006;-72
2024/01/01 06:15:20;;;;;;;6.63;3.58;;;;;;;4.75;100.00;97344.06;6109446;19;20017;-72
2024/01/01 06:17:20;;;;;;;4.78;2.60;;;;;;;4.73;100.00;97331.88;6109629;19;20507;-72
2024/01/01 06:19:20;;;;;;;9.35;3.13;;;;;;;4.69;100.00;97323.59;6108541;19;20020;-72
2024/01/01 06:21:21;;;;;;;5.30;2.60;;;;;;;4.73;100.00;97324.47;6109965;19;20018;-72
2024/01/01 06:23:21;;;;;;;7.30;3.22;;;;;;;4.72;100.00;97317.41;6107569;19;20007;-72
2024/01/01 06:25:21;;;;;;;4.57;2.50;;;;;;;4.73;100.00;97307.22;6108816;19;20394;-72
2024/01/01 06:27:22;;;;;;;5.70;2.60;;;;;;;4.73;100.00;97320.94;6108790;19;20014;-72
2024/01/01 06:29:26;;;;;;;5.70;2.50;;;;;;;4.70;100.00;97318.91;6110000;19;20007;-72
2024/01/01 06:31:27;;;;;;;7.18;2.30;;;;;;;4.68;100.00;97313.00;6109626;19;20367;-72
2024/01/01 06:33:29;;;;;;;8.25;2.95;;;;;;;4.69;100.00;97317.31;6108126;19;20006;-72
2024/01/01 06:35:30;;;;;;;5.43;2.35;;;;;;;4.73;100.00;97310.75;6108940;19;20010;-72
2024/01/01 06:37:30;;;;;;;5.82;1.92;;;;;;;4.75;100.00;97311.19;6108714;19;20010;-72
2024/01/01 06:39:31;;;;;;;9.82;2.75;;;;;;;4.75;100.00;97313.13;6108797;19;20333;-72
2024/01/01 06:41:31;;;;;;;7.28;2.47;;;;;;;4.73;100.00;97309.97;6109391;19;20020;-72
2024/01/01 06:43:32;;;;;;;4.57;2.30;;;;;;;4.72;100.00;97324.84;6107066;19;20011;-72
2024/01/01 06:45:32;;;;;;;4.28;2.40;;;;;;;4.71;100.00;97325.97;6109375;19;20007;-72
2024/01/01 06:47:33;;;;;;;4.97;2.45;;;;;;;4.70;100.00;97318.91;6107948;19;20029;-72
2024/01/01 06:49:33;;;;;;;4.22;2.10;;;;;;;4.67;100.00;97328.66;6109062;19;20335;-72
2024/01/01 06:51:34;;;;;;;6.18;2.30;;;;;;;4.70;100.00;97330.66;6108958;19;20006;-72
2024/01/01 06:53:34;;;;;;;4.45;2.33;;;;;;;4.71;100.00;97334.97;6106852;19;20011;-72
2024/01/01 06:55:35;;;;;;;5.50;2.92;;;;;;;4.76;100.00;97333.88;6108194;19;20006;-72
2024/01/01 06:57:35;;;;;;;9.25;3.00;;;;;;;4.86;100.00;97343.44;6109355;19;20017;-72
2024/01/01 06:59:36;;;;;;;5.68;2.05;;;;;;;4.87;100.00;97342.25;6108598;19;20356;-72
2024/01/01 07:01:36;;;;;;;9.35;1.90;;;;;;;4.85;100.00;97355.56;6109038;19;20504;-72
2024/01/01 07:03:38;;;;;;;4.53;2.15;;;;;;;4.84;100.00;97362.19;6106504;19;20006;-72
2024/01/01 07:05:38;;;;;;;7.50;2.40;;;;;;;4.84;100.00;97362.97;6108686;19;20087;-72
2024/01/01 07:07:38;;;;;;;4.22;1.83;;;;;;;4.84;100.00;97370.41;6108693;19;20015;-72
2024/01/01 07:09:39;;;;;;;6.57;2.40;;;;;;;4.85;100.00;97370.03;6106855;19;20026;-72
2024/01/01 07:11:39;;;;;;;5.13;2.13;;;;;;;4.87;100.00;97366.94;6107930;19;20012;-72
2024/01/01 07:13:39;;;;;;;5.38;2.40;;;;;;;4.83;100.00;97361.41;6107092;19;20011;-72
2024/01/01 07:15:40;;;;;;;4.13;2.55;;;;;;;4.83;100.00;97377.06;6107718;19;20010;-72
2024/01/01 07:17:40;;;;;;;8.02;2.25;;;;;;;4.81;100.00;97374.69;6108338;19;20470;-72
2024/01/01 07:19:41;;;;;;;7.03;2.30;;;;;;;4.86;100.00;97368.09;6108527;19;20092;-72
2024/01/01 07:21:41;;;;;;;7.43;2.15;;;;;;;4.90;100.00;97380.72;6108012;19;20026;-72
2024/01/01 07:23:41;;;;;;;8.20;2.20;;;;;;;4.90;100.00;97391.66;6106962;19;20456;-72
2024/01/01 07:25:42;;;;;;;7.57;2.72;;;;;;;4.98;100.00;97376.91;6108814;19;20439;-72
2024/01/01 07:27:42;;;;;;;5.93;2.78;;;;;;;5.00;100.00;97391.03;6107228;19;20014;-71
2024/01/01 07:29:42;;;;;;;6.07;2.03;;;;;;;5.03;100.00;97382.06;6107830;19;20032;-71
2024/01/01 07:31:43;;;;;;;4.97;1.92;;;;;;;5.01;100.00;97387.13;6106644;19;20003;-71
2024/01/01 07:33:43;;;;;;;5.07;2.13;;;;;;;5.04;100.00;97377.38;6107242;19;20019;-72
2024/01/01 07:35:44;;;;;;;10.68;2.92;;;;;;;5.05;100.00;97390.75;6107351;19;20027;-72
2024/01/01 07:37:45;;;;;;;4.80;2.42;;;;;;;5.03;100.00;97387.56;6106661;19;20444;-72
2024/01/01 07:39:45;;;;;;;7.82;2.20;;;;;;;4.99;100.00;97385.94;6107854;19;20018;-72
2024/01/01 07:41:49;;;;;;;5.68;2.70;;;;;;;5.03;100.00;97395.78;6106203;19;20079;-72
2024/01/01 07:43:49;;;;;;;2.92;1.80;;;;;;;5.03;100.00;97387.56;6107102;19;20018;-72
2024/01/01 07:45:50;;;;;;;6.70;2.33;;;;;;;5.00;100.00;97399.28;6107353;19;20002;-72
2024/01/01 07:47:50;;;;;;;5.55;2.83;;;;;;;4.98;100.00;97407.06;6107490;19;20010;-72
2024/01/01 07:49:50;;;;;;;9.05;3.33;;;;;;;5.05;100.00;97409.16;6106856;19;20035;-72
2024/01/01 07:51:51;;;;;;;8.65;2.80;;;;;;;5.07;100.00;97404.88;6106297;19;20367;-72
2024/01/01 07:53:51;;;;;;;5.72;2.50;;;;;;;5.06;100.00;97403.28;6106530;19;20007;-72
2024/01/01 07:55:51;;;;;;;5.93;3.10;;;;;;;5.15;100.00;97402.25;6106849;19;20421;-72
2024/01/01 07:57:53;;;;;;;6.25;2.40;;;;;;;5.20;100.00;97396.44;6106954;19;20074;-72
2024/01/01 07:59:55;;;;;;;4.55;2.30;;;;;;;5.19;100.00;97409.34;6107343;19;20475;-72
2024/01/01 08:01:55;;;;;;;7.32;2.65;;;;;;;5.22;100.00;97405.09;6104182;19;20007;-72
2024/01/01 08:03:56;;;;;;;6.78;2.20;;;;;;;5.22;100.00;97403.16;6106856;19;20003;-72
2024/01/01 08:05:56;;;;;;;8.40;2.35;;;;;;;5.21;100.00;97417.19;6105990;19;20441;-72
2024/01/01 08:07:58;;;;;;;6.38;2.35;;;;;;;5.23;100.00;97406.69;6112947;19;20002;-72
2024/01/01 08:09:58;;;;;;;4.18;2.40;;;;;;;5.27;100.00;97407.50;6112317;19;20015;-72
2024/01/01 08:11:58;;;;;;;6.05;2.30;;;;;;;5.32;100.00;97404.47;6111300;19;20459;-72
2024/01/01 08:13:58;;;;;;;7.75;2.45;;;;;;;5.33;100.00;97406.03;6112192;19;20014;-72
2024/01/01 08:16:00;;;;;;;10.20;3.05;;;;;;;5.39;100.00;97412.00;6111314;19;20349;-72
2024/01/01 08:18:02;;;;;;;10.02;3.03;;;;;;;5.38;100.00;97402.16;6112095;19;20467;-72
2024/01/01 08:20:04;;;;;;;6.85;2.72;;;;;;;5.36;100.00;97403.34;6112323;19;20463;-72
2024/01/01 08:22:04;;;;;;;5.30;2.20;;;;;;;5.38;100.00;97403.00;6110479;19;20002;-71
2024/01/01 08:24:05;;;;;;;4.97;2.50;;;;;;;5.44;100.00;97395.22;6110340;19;20023;-71
2024/01/01 08:26:05;;;;;;;6.05;2.58;;;;;;;5.42;100.00;97405.78;6110345;19;20016;-72
2024/01/01 08:28:06;;;;;;;3.90;2.13;;;;;;;5.44;100.00;97420.69;6113017;19;20017;-72
2024/01/01 08:30:07;;;;;;;6.25;2.58;;;;;;;5.43;100.00;97410.88;6111207;19;19999;-72
2024/01/01 08:32:07;;;;;;;3.92;2.05;;;;;;;5.45;100.00;97405.81;6110744;19;20006;-72
2024/01/01 08:34:08;;;;;;;5.72;2.58;;;;;;;5.43;100.00;97421.84;6110490;19;20003;-72
2024/01/01 08:36:08;;;;;;;5.55;2.10;;;;;;;5.39;100.00;97415.53;6108263;19;20010;-72
2024/01/01 08:38:09;;;;;;;5.70;2.13;;;;;;;5.33;100.00;97408.78;6110802;19;19999;-72
2024/01/01 08:40:10;;;;;;;5.30;2.83;;;;;;;5.31;100.00;97397.41;6112053;19;20508;-72
2024/01/01 08:42:11;;;;;;;6.30;1.95;;;;;;;5.38;100.00;97419.44;6110575;19;20105;-72
2024/01/01 08:44:11;;;;;;;4.85;2.00;;;;;;;5.35;100.00;97399.00;6110631;19;20026;-72
2024/01/01 08:46:11;;;;;;;6.20;2.13;;;;;;;5.36;100.00;97405.28;6109265;19;20003;-72
2024/01/01 08:48:12;;;;;;;6.78;2.55;;;;;;;5.38;100.00;97396.69;6104765;19;20306;-72
2024/01/01 08:50:13;;;;;;;5.55;2.28;;;;;;;5.43;100.00;97394.41;6099900;19;20969;-72
2024/01/01 08:52:14;;;;;;;5.50;2.27;;;;;;;5.49;100.00;97397.66;6108757;19;20018;-72
2024/01/01 08:54:16;;;;;;;4.95;1.98;;;;;;;5.44;100.00;97393.25;6108768;19;20458;-72
2024/01/01 08:56:16;;;;;;;3.90;1.90;;;;;;;5.49;100.00;97398.44;6107367;19;20006;-71
2024/01/01 08:58:16;;;;;;;5.50;2.03;;;;;;;5.55;100.00;97388.72;6107080;19;20043;-71
2024/01/01 09:00:17;;;;;;;5.53;1.85;;;;;;;5.56;100.00;97395.78;6003304;19;20446;-71
2024/01/01 09:02:17;;;;;;;8.75;1.73;;;;;;;5.54;100.00;97405.53;6106704;19;20002;-71
2024/01/01 09:04:18;;;;;;;3.88;1.90;;;;;;;5.60;100.00;97407.59;6106141;19;20023;-71
2024/01/01 09:06:18;;;;;;;4.40;1.88;;;;;;;5.60;100.00;97410.34;6102332;19;20023;-71
2024/01/01 09:08:18;;;;;;;5.03;2.00;;;;;;;5.70;100.00;97408.09;6102394;19;20010;-71
2024/01/01 09:10:19;;;;;;;5.78;1.80;;;;;;;5.69;100.00;97423.00;6101168;19;21483;-71
2024/01/01 09:12:19;;;;;;;3.67;1.80;;;;;;;5.70;100.00;97419.88;6100380;19;20007;-72
2024/01/01 09:14:19;;;;;;;6.95;1.88;;;;;;;5.66;100.00;97415.53;6104580;19;20010;-72
2024/01/01 09:16:20;;;;;;;8.85;1.90;;;;;;;5.66;100.00;97419.06;6101277;19;20018;-72
2024/01/01 09:18:20;;;;;;;5.20;1.98;;;;;;;5.63;100.00;97419.81;6099829;19;20335;-72
2024/01/01 09:20:22;;;;;;;4.78;2.05;;;;;;;5.64;100.00;97427.66;6102419;19;20098;-72
2024/01/01 09:22:22;;;;;;;6.03;1.80;;;;;;;5.73;100.00;97423.84;6101607;19;20018;-72
2024/01/01 09:24:23;;;;;;;5.78;2.20;;;;;;;5.70;100.00;97414.38;6104182;19;20010;-72
2024/01/01 09:26:24;;;;;;;9.88;1.80;;;;;;;5.74;100.00;97415.25;6102698;19;20011;-72
2024/01/01 09:28:24;;;;;;;4.43;2.00;;;;;;;5.75;100.00;97430.53;6108333;19;20062;-72